TimeCST,TemperatureF,Dew PointF,Humidity,Sea Level PressureIn,VisibilityMPH,Wind Direction,Wind SpeedMPH,Gust SpeedMPH,PrecipitationIn,Events,Conditions,WindDirDegrees,DateUTC
12:55 AM,56.8,55.8,96,30.23,10.0,NNE,3.5,-,N/A,,Clear,30,2011-11-07 06:55:00
1:55 AM,58.6,56.7,93,30.22,10.0,ENE,6.9,-,N/A,,Mostly Cloudy,60,2011-11-07 07:55:00
2:55 AM,60.4,57.7,91,30.20,10.0,ENE,8.1,-,N/A,,Overcast,70,2011-11-07 08:55:00
3:55 AM,62.1,58.8,89,30.20,10.0,East,11.5,-,N/A,,Overcast,90,2011-11-07 09:55:00
4:55 AM,62.6,59.9,91,30.21,10.0,East,11.5,-,N/A,,Overcast,90,2011-11-07 10:55:00
5:55 AM,62.2,59.9,92,30.21,10.0,East,12.7,-,N/A,,Overcast,80,2011-11-07 11:55:00
6:55 AM,61.5,59.4,93,30.23,10.0,East,11.5,-,N/A,,Partly Cloudy,80,2011-11-07 12:55:00
9:55 AM,72.3,61.7,69,30.25,10.0,ESE,13.8,-,N/A,,Clear,110,2011-11-07 15:55:00
10:55 AM,74.8,61.5,63,30.25,10.0,ESE,15.0,-,N/A,,Clear,120,2011-11-07 16:55:00
11:55 AM,75.4,61.3,62,30.21,10.0,SE,15.0,-,N/A,,Clear,140,2011-11-07 17:55:00
12:55 PM,75.4,61.3,62,30.19,10.0,SE,15.0,-,N/A,,Clear,140,2011-11-07 18:55:00
1:55 PM,75.0,62.4,65,30.17,10.0,SE,12.7,-,N/A,,Clear,140,2011-11-07 19:55:00
2:55 PM,73.9,61.9,66,30.16,10.0,SE,12.7,-,N/A,,Clear,130,2011-11-07 20:55:00
3:55 PM,72.0,61.9,70,30.15,10.0,SSE,10.4,-,N/A,,Clear,150,2011-11-07 21:55:00
4:55 PM,70.5,61.2,72,30.15,10.0,ESE,6.9,-,N/A,,Clear,110,2011-11-07 22:55:00
5:55 PM,68.4,61.9,80,30.16,10.0,ESE,9.2,-,N/A,,Clear,120,2011-11-07 23:55:00
6:55 PM,67.1,63.5,88,30.17,10.0,ESE,9.2,-,N/A,,Clear,110,2011-11-08 00:55:00
7:55 PM,66.9,64.2,91,30.18,10.0,ESE,6.9,-,N/A,,Clear,110,2011-11-08 01:55:00
8:55 PM,65.5,63.9,94,30.18,10.0,East,5.8,-,N/A,,Clear,100,2011-11-08 02:55:00
9:55 PM,64.4,64.0,99,30.16,10.0,East,5.8,-,N/A,,Clear,90,2011-11-08 03:55:00
10:55 PM,65.1,64.8,99,30.13,10.0,East,6.9,-,N/A,,Clear,90,2011-11-08 04:55:00
11:55 PM,63.9,63.7,99,30.11,10.0,East,5.8,-,N/A,,Clear,90,2011-11-08 05:55:00